sensor_id;sensor_type;location;lat;lon;timestamp;temperature;humidity
19680;DHT22;9989;48.962;9.182;2023-07-22T00:01:19;16.80;99.90
19680;DHT22;9989;48.962;9.182;2023-07-22T00:03:45;16.90;99.90
19680;DHT22;9989;48.962;9.182;2023-07-22T00:06:11;16.80;99.90
19680;DHT22;9989;48.962;9.182;2023-07-22T00:08:38;16.80;99.90
19680;DHT22;9989;48.962;9.182;2023-07-22T00:11:05;16.80;99.90
19680;DHT22;9989;48.962;9.182;2023-07-22T00:13:31;16.80;99.90
19680;DHT22;9989;48.962;9.182;2023-07-22T00:15:58;16.90;99.90
19680;DHT22;9989;48.962;9.182;2023-07-22T00:18:25;16.90;99.90
19680;DHT22;9989;48.962;9.182;2023-07-22T00:20:52;16.90;99.90
19680;DHT22;9989;48.962;9.182;2023-07-22T00:23:19;16.90;99.90
19680;DHT22;9989;48.962;9.182;2023-07-22T00:25:46;16.80;99.90
19680;DHT22;9989;48.962;9.182;2023-07-22T00:28:11;16.80;99.90
19680;DHT22;9989;48.962;9.182;2023-07-22T00:30:37;16.80;99.90
19680;DHT22;9989;48.962;9.182;2023-07-22T00:33:02;16.70;99.90
19680;DHT22;9989;48.962;9.182;2023-07-22T00:35:28;16.70;99.90
19680;DHT22;9989;48.962;9.182;2023-07-22T00:37:54;16.70;99.90
19680;DHT22;9989;48.962;9.182;2023-07-22T00:40:20;16.60;99.90
19680;DHT22;9989;48.962;9.182;2023-07-22T00:42:45;16.70;99.90
19680;DHT22;9989;48.962;9.182;2023-07-22T00:45:11;16.70;99.90
19680;DHT22;9989;48.962;9.182;2023-07-22T00:47:38;16.70;99.90
19680;DHT22;9989;48.962;9.182;2023-07-22T00:50:06;16.80;99.90
19680;DHT22;9989;48.962;9.182;2023-07-22T00:52:33;16.80;99.90
19680;DHT22;9989;48.962;9.182;2023-07-22T00:54:59;16.80;99.90
19680;DHT22;9989;48.962;9.182;2023-07-22T00:57:25;16.80;99.90
19680;DHT22;9989;48.962;9.182;2023-07-22T00:59:51;16.90;99.90
19680;DHT22;9989;48.962;9.182;2023-07-22T01:02:18;16.90;99.90
19680;DHT22;9989;48.962;9.182;2023-07-22T01:04:44;16.90;99.90
19680;DHT22;9989;48.962;9.182;2023-07-22T01:07:09;16.90;99.90
19680;DHT22;9989;48.962;9.182;2023-07-22T01:09:40;16.90;99.90
19680;DHT22;9989;48.962;9.182;2023-07-22T01:12:06;16.90;99.90
19680;DHT22;9989;48.962;9.182;2023-07-22T01:14:41;16.80;99.90
19680;DHT22;9989;48.962;9.182;2023-07-22T01:17:08;16.80;99.90
19680;DHT22;9989;48.962;9.182;2023-07-22T01:19:35;16.80;99.90
19680;DHT22;9989;48.962;9.182;2023-07-22T01:22:05;16.80;99.90
19680;DHT22;9989;48.962;9.182;2023-07-22T01:24:33;16.80;99.90
19680;DHT22;9989;48.962;9.182;2023-07-22T01:26:59;16.80;99.90
19680;DHT22;9989;48.962;9.182;2023-07-22T01:29:25;16.80;99.90
19680;DHT22;9989;48.962;9.182;2023-07-22T01:31:53;16.80;99.90
19680;DHT22;9989;48.962;9.182;2023-07-22T01:34:19;16.80;99.90
19680;DHT22;9989;48.962;9.182;2023-07-22T01:36:46;16.80;99.90
19680;DHT22;9989;48.962;9.182;2023-07-22T01:39:15;16.70;99.90
19680;DHT22;9989;48.962;9.182;2023-07-22T01:41:41;16.70;99.90
19680;DHT22;9989;48.962;9.182;2023-07-22T01:44:07;16.70;99.90
19680;DHT22;9989;48.962;9.182;2023-07-22T01:46:36;16.70;99.90
19680;DHT22;9989;48.962;9.182;2023-07-22T01:49:04;16.60;99.90
19680;DHT22;9989;48.962;9.182;2023-07-22T01:51:30;16.50;99.90
19680;DHT22;9989;48.962;9.182;2023-07-22T01:53:56;16.50;99.90
19680;DHT22;9989;48.962;9.182;2023-07-22T01:56:22;16.50;99.90
19680;DHT22;9989;48.962;9.182;2023-07-22T01:58:48;16.40;99.90
19680;DHT22;9989;48.962;9.182;2023-07-22T02:01:14;16.40;99.90
19680;DHT22;9989;48.962;9.182;2023-07-22T02:03:42;16.40;99.90
19680;DHT22;9989;48.962;9.182;2023-07-22T02:06:07;16.30;99.90
19680;DHT22;9989;48.962;9.182;2023-07-22T02:08:33;16.30;99.90
19680;DHT22;9989;48.962;9.182;2023-07-22T02:11:02;16.30;99.90
19680;DHT22;9989;48.962;9.182;2023-07-22T02:13:29;16.30;99.90
19680;DHT22;9989;48.962;9.182;2023-07-22T02:15:55;16.30;99.90
19680;DHT22;9989;48.962;9.182;2023-07-22T02:18:21;16.30;99.90
19680;DHT22;9989;48.962;9.182;2023-07-22T02:20:46;16.30;99.90
19680;DHT22;9989;48.962;9.182;2023-07-22T02:23:12;16.30;99.90
19680;DHT22;9989;48.962;9.182;2023-07-22T02:25:38;16.30;99.90
19680;DHT22;9989;48.962;9.182;2023-07-22T02:28:03;16.30;99.90
19680;DHT22;9989;48.962;9.182;2023-07-22T02:30:29;16.30;99.90
19680;DHT22;9989;48.962;9.182;2023-07-22T02:32:55;16.30;99.90
19680;DHT22;9989;48.962;9.182;2023-07-22T02:35:21;16.30;99.90
19680;DHT22;9989;48.962;9.182;2023-07-22T02:37:47;16.30;99.90
19680;DHT22;9989;48.962;9.182;2023-07-22T02:40:12;16.30;99.90
19680;DHT22;9989;48.962;9.182;2023-07-22T02:42:39;16.20;99.90
19680;DHT22;9989;48.962;9.182;2023-07-22T02:45:05;16.20;99.90
19680;DHT22;9989;48.962;9.182;2023-07-22T02:47:33;16.20;99.90
19680;DHT22;9989;48.962;9.182;2023-07-22T02:49:59;16.20;99.90
19680;DHT22;9989;48.962;9.182;2023-07-22T02:52:25;16.10;99.90
19680;DHT22;9989;48.962;9.182;2023-07-22T02:55:10;16.10;99.90
19680;DHT22;9989;48.962;9.182;2023-07-22T02:57:37;16.10;99.90
19680;DHT22;9989;48.962;9.182;2023-07-22T03:00:03;16.10;99.90
19680;DHT22;9989;48.962;9.182;2023-07-22T03:02:36;16.10;99.90
19680;DHT22;9989;48.962;9.182;2023-07-22T03:05:04;16.00;99.90
19680;DHT22;9989;48.962;9.182;2023-07-22T03:07:36;16.00;99.90
19680;DHT22;9989;48.962;9.182;2023-07-22T03:10:02;16.00;99.90
19680;DHT22;9989;48.962;9.182;2023-07-22T03:12:28;16.00;99.90
19680;DHT22;9989;48.962;9.182;2023-07-22T03:14:54;15.90;99.90
19680;DHT22;9989;48.962;9.182;2023-07-22T03:17:20;15.90;99.90
19680;DHT22;9989;48.962;9.182;2023-07-22T03:19:46;15.80;99.90
19680;DHT22;9989;48.962;9.182;2023-07-22T03:22:14;15.80;99.90
19680;DHT22;9989;48.962;9.182;2023-07-22T03:24:41;15.90;99.90
19680;DHT22;9989;48.962;9.182;2023-07-22T03:27:07;15.80;99.90
19680;DHT22;9989;48.962;9.182;2023-07-22T03:29:33;15.90;99.90
19680;DHT22;9989;48.962;9.182;2023-07-22T03:31:58;15.80;99.90
19680;DHT22;9989;48.962;9.182;2023-07-22T03:34:26;15.80;99.90
19680;DHT22;9989;48.962;9.182;2023-07-22T03:36:52;15.80;99.90
19680;DHT22;9989;48.962;9.182;2023-07-22T03:39:17;15.90;99.90
19680;DHT22;9989;48.962;9.182;2023-07-22T03:41:43;15.80;99.90
19680;DHT22;9989;48.962;9.182;2023-07-22T03:44:09;15.80;99.90
19680;DHT22;9989;48.962;9.182;2023-07-22T03:46:34;15.80;99.90
19680;DHT22;9989;48.962;9.182;2023-07-22T03:49:00;15.80;99.90
19680;DHT22;9989;48.962;9.182;2023-07-22T03:51:26;15.80;99.90
19680;DHT22;9989;48.962;9.182;2023-07-22T03:53:51;15.80;99.90
19680;DHT22;9989;48.962;9.182;2023-07-22T03:56:17;15.80;99.90
19680;DHT22;9989;48.962;9.182;2023-07-22T03:58:42;15.80;99.90
19680;DHT22;9989;48.962;9.182;2023-07-22T04:01:11;15.70;99.90
19680;DHT22;9989;48.962;9.182;2023-07-22T04:03:36;15.70;99.90
19680;DHT22;9989;48.962;9.182;2023-07-22T04:06:02;15.70;99.90
19680;DHT22;9989;48.962;9.182;2023-07-22T04:08:28;15.70;99.90
19680;DHT22;9989;48.962;9.182;2023-07-22T04:10:55;15.70;99.90
19680;DHT22;9989;48.962;9.182;2023-07-22T04:13:21;15.70;99.90
19680;DHT22;9989;48.962;9.182;2023-07-22T04:15:48;15.80;99.90
19680;DHT22;9989;48.962;9.182;2023-07-22T04:18:16;15.70;99.90
19680;DHT22;9989;48.962;9.182;2023-07-22T04:20:42;15.70;99.90
19680;DHT22;9989;48.962;9.182;2023-07-22T04:23:08;15.80;99.90
19680;DHT22;9989;48.962;9.182;2023-07-22T04:25:41;15.80;99.90
19680;DHT22;9989;48.962;9.182;2023-07-22T04:28:08;15.80;99.90
19680;DHT22;9989;48.962;9.182;2023-07-22T04:30:34;15.80;99.90
19680;DHT22;9989;48.962;9.182;2023-07-22T04:33:00;15.80;99.90
19680;DHT22;9989;48.962;9.182;2023-07-22T04:35:26;15.80;99.90
19680;DHT22;9989;48.962;9.182;2023-07-22T04:37:51;15.80;99.90
19680;DHT22;9989;48.962;9.182;2023-07-22T04:40:17;15.80;99.90
19680;DHT22;9989;48.962;9.182;2023-07-22T04:42:44;15.80;99.90
19680;DHT22;9989;48.962;9.182;2023-07-22T04:45:10;15.80;99.90
19680;DHT22;9989;48.962;9.182;2023-07-22T04:47:37;15.80;99.90
19680;DHT22;9989;48.962;9.182;2023-07-22T04:50:04;15.80;99.90
19680;DHT22;9989;48.962;9.182;2023-07-22T04:52:35;15.90;99.90
19680;DHT22;9989;48.962;9.182;2023-07-22T04:55:00;15.90;99.90
19680;DHT22;9989;48.962;9.182;2023-07-22T04:57:27;16.00;99.90
19680;DHT22;9989;48.962;9.182;2023-07-22T04:59:53;16.00;99.90
19680;DHT22;9989;48.962;9.182;2023-07-22T05:02:19;16.10;99.90
19680;DHT22;9989;48.962;9.182;2023-07-22T05:04:44;16.10;99.90
19680;DHT22;9989;48.962;9.182;2023-07-22T05:07:10;16.10;99.90
19680;DHT22;9989;48.962;9.182;2023-07-22T05:09:37;16.20;99.90
19680;DHT22;9989;48.962;9.182;2023-07-22T05:12:02;16.20;99.90
19680;DHT22;9989;48.962;9.182;2023-07-22T05:14:28;16.20;99.90
19680;DHT22;9989;48.962;9.182;2023-07-22T05:16:54;16.30;99.90
19680;DHT22;9989;48.962;9.182;2023-07-22T05:19:19;16.30;99.90
19680;DHT22;9989;48.962;9.182;2023-07-22T05:21:46;16.40;99.90
19680;DHT22;9989;48.962;9.182;2023-07-22T05:24:11;16.40;99.90
19680;DHT22;9989;48.962;9.182;2023-07-22T05:26:38;16.50;99.90
19680;DHT22;9989;48.962;9.182;2023-07-22T05:29:03;16.50;99.90
19680;DHT22;9989;48.962;9.182;2023-07-22T05:31:29;16.60;99.90
19680;DHT22;9989;48.962;9.182;2023-07-22T05:33:54;16.60;99.90
19680;DHT22;9989;48.962;9.182;2023-07-22T05:36:21;16.70;99.90
19680;DHT22;9989;48.962;9.182;2023-07-22T05:38:46;16.80;99.90
19680;DHT22;9989;48.962;9.182;2023-07-22T05:41:12;16.80;99.90
19680;DHT22;9989;48.962;9.182;2023-07-22T05:43:38;16.90;99.90
19680;DHT22;9989;48.962;9.182;2023-07-22T05:46:03;17.00;99.90
19680;DHT22;9989;48.962;9.182;2023-07-22T05:48:29;17.00;99.90
19680;DHT22;9989;48.962;9.182;2023-07-22T05:50:55;17.00;99.90
19680;DHT22;9989;48.962;9.182;2023-07-22T05:53:20;17.10;99.90
19680;DHT22;9989;48.962;9.182;2023-07-22T05:55:46;17.10;99.90
19680;DHT22;9989;48.962;9.182;2023-07-22T05:58:18;17.10;99.90
19680;DHT22;9989;48.962;9.182;2023-07-22T06:00:44;17.10;99.90
19680;DHT22;9989;48.962;9.182;2023-07-22T06:03:09;17.10;99.90
19680;DHT22;9989;48.962;9.182;2023-07-22T06:05:35;17.20;99.90
19680;DHT22;9989;48.962;9.182;2023-07-22T06:08:01;17.30;99.90
19680;DHT22;9989;48.962;9.182;2023-07-22T06:10:26;17.30;99.90
19680;DHT22;9989;48.962;9.182;2023-07-22T06:12:52;17.40;99.90
19680;DHT22;9989;48.962;9.182;2023-07-22T06:15:18;17.50;99.90
19680;DHT22;9989;48.962;9.182;2023-07-22T06:17:44;17.60;99.90
19680;DHT22;9989;48.962;9.182;2023-07-22T06:20:10;17.70;99.90
19680;DHT22;9989;48.962;9.182;2023-07-22T06:22:35;17.80;99.90
19680;DHT22;9989;48.962;9.182;2023-07-22T06:25:01;17.80;99.90
19680;DHT22;9989;48.962;9.182;2023-07-22T06:27:27;17.90;99.90
19680;DHT22;9989;48.962;9.182;2023-07-22T06:29:52;18.00;99.90
19680;DHT22;9989;48.962;9.182;2023-07-22T06:32:18;18.10;99.90
19680;DHT22;9989;48.962;9.182;2023-07-22T06:34:44;18.20;99.90
19680;DHT22;9989;48.962;9.182;2023-07-22T06:37:09;18.30;99.90
19680;DHT22;9989;48.962;9.182;2023-07-22T06:39:35;18.40;99.90
19680;DHT22;9989;48.962;9.182;2023-07-22T06:42:00;18.50;99.90
19680;DHT22;9989;48.962;9.182;2023-07-22T06:44:26;18.50;99.90
19680;DHT22;9989;48.962;9.182;2023-07-22T06:46:52;18.60;99.90
19680;DHT22;9989;48.962;9.182;2023-07-22T06:49:17;18.70;99.90
19680;DHT22;9989;48.962;9.182;2023-07-22T06:51:43;18.80;99.90
19680;DHT22;9989;48.962;9.182;2023-07-22T06:54:08;18.80;99.90
19680;DHT22;9989;48.962;9.182;2023-07-22T06:56:34;19.00;99.90
19680;DHT22;9989;48.962;9.182;2023-07-22T06:58:59;19.00;99.90
19680;DHT22;9989;48.962;9.182;2023-07-22T07:01:25;19.10;99.90
19680;DHT22;9989;48.962;9.182;2023-07-22T07:03:51;19.20;99.90
19680;DHT22;9989;48.962;9.182;2023-07-22T07:06:16;19.20;99.90
19680;DHT22;9989;48.962;9.182;2023-07-22T07:08:42;19.20;99.90
19680;DHT22;9989;48.962;9.182;2023-07-22T07:11:07;19.40;99.90
19680;DHT22;9989;48.962;9.182;2023-07-22T07:13:33;19.40;99.90
19680;DHT22;9989;48.962;9.182;2023-07-22T07:16:19;19.50;99.90
19680;DHT22;9989;48.962;9.182;2023-07-22T07:18:45;19.50;99.90
19680;DHT22;9989;48.962;9.182;2023-07-22T07:21:11;19.60;99.90
19680;DHT22;9989;48.962;9.182;2023-07-22T07:23:36;19.70;99.90
19680;DHT22;9989;48.962;9.182;2023-07-22T07:26:02;19.80;99.90
19680;DHT22;9989;48.962;9.182;2023-07-22T07:28:27;19.90;99.90
19680;DHT22;9989;48.962;9.182;2023-07-22T07:30:53;20.00;99.90
19680;DHT22;9989;48.962;9.182;2023-07-22T07:33:18;20.20;99.90
19680;DHT22;9989;48.962;9.182;2023-07-22T07:35:47;20.20;99.90
19680;DHT22;9989;48.962;9.182;2023-07-22T07:38:13;20.40;99.90
19680;DHT22;9989;48.962;9.182;2023-07-22T07:40:38;20.50;99.90
19680;DHT22;9989;48.962;9.182;2023-07-22T07:43:04;20.60;99.90
19680;DHT22;9989;48.962;9.182;2023-07-22T07:45:30;20.70;99.90
19680;DHT22;9989;48.962;9.182;2023-07-22T07:47:55;20.80;99.90
19680;DHT22;9989;48.962;9.182;2023-07-22T07:50:21;20.90;99.90
19680;DHT22;9989;48.962;9.182;2023-07-22T07:52:47;21.00;99.90
19680;DHT22;9989;48.962;9.182;2023-07-22T07:55:12;21.10;99.90
19680;DHT22;9989;48.962;9.182;2023-07-22T07:57:38;21.20;99.90
19680;DHT22;9989;48.962;9.182;2023-07-22T08:00:04;21.20;99.90
19680;DHT22;9989;48.962;9.182;2023-07-22T08:02:29;21.30;99.90
19680;DHT22;9989;48.962;9.182;2023-07-22T08:04:55;21.40;99.90
19680;DHT22;9989;48.962;9.182;2023-07-22T08:07:21;21.50;99.90
19680;DHT22;9989;48.962;9.182;2023-07-22T08:09:47;21.60;99.90
19680;DHT22;9989;48.962;9.182;2023-07-22T08:12:18;21.70;99.90
19680;DHT22;9989;48.962;9.182;2023-07-22T08:14:44;21.80;99.90
19680;DHT22;9989;48.962;9.182;2023-07-22T08:17:09;21.90;99.90
19680;DHT22;9989;48.962;9.182;2023-07-22T08:19:35;22.00;99.90
19680;DHT22;9989;48.962;9.182;2023-07-22T08:22:01;22.20;99.90
19680;DHT22;9989;48.962;9.182;2023-07-22T08:24:26;22.20;99.90
19680;DHT22;9989;48.962;9.182;2023-07-22T08:26:52;22.40;99.90
19680;DHT22;9989;48.962;9.182;2023-07-22T08:29:18;22.50;99.90
19680;DHT22;9989;48.962;9.182;2023-07-22T08:31:43;22.60;99.90
19680;DHT22;9989;48.962;9.182;2023-07-22T08:34:09;22.80;99.90
19680;DHT22;9989;48.962;9.182;2023-07-22T08:36:34;22.90;99.90
19680;DHT22;9989;48.962;9.182;2023-07-22T08:39:01;23.10;99.90
19680;DHT22;9989;48.962;9.182;2023-07-22T08:41:28;23.20;99.90
19680;DHT22;9989;48.962;9.182;2023-07-22T08:43:55;23.30;99.90
19680;DHT22;9989;48.962;9.182;2023-07-22T08:46:23;23.40;99.90
19680;DHT22;9989;48.962;9.182;2023-07-22T08:48:53;23.50;99.90
19680;DHT22;9989;48.962;9.182;2023-07-22T08:51:19;23.50;99.90
19680;DHT22;9989;48.962;9.182;2023-07-22T08:53:46;23.60;99.90
19680;DHT22;9989;48.962;9.182;2023-07-22T08:56:12;23.70;99.90
19680;DHT22;9989;48.962;9.182;2023-07-22T08:58:39;23.90;99.90
19680;DHT22;9989;48.962;9.182;2023-07-22T09:01:07;24.00;99.90
19680;DHT22;9989;48.962;9.182;2023-07-22T09:03:33;24.20;99.90
19680;DHT22;9989;48.962;9.182;2023-07-22T09:05:59;24.30;99.90
19680;DHT22;9989;48.962;9.182;2023-07-22T09:08:26;24.50;99.90
19680;DHT22;9989;48.962;9.182;2023-07-22T09:10:52;24.60;98.90
19680;DHT22;9989;48.962;9.182;2023-07-22T09:13:19;24.80;98.80
19680;DHT22;9989;48.962;9.182;2023-07-22T09:15:46;24.90;97.80
19680;DHT22;9989;48.962;9.182;2023-07-22T09:18:13;25.00;96.30
19680;DHT22;9989;48.962;9.182;2023-07-22T09:20:40;25.00;95.00
19680;DHT22;9989;48.962;9.182;2023-07-22T09:23:07;25.00;95.20
19680;DHT22;9989;48.962;9.182;2023-07-22T09:25:32;25.10;94.60
19680;DHT22;9989;48.962;9.182;2023-07-22T09:27:59;25.10;94.00
19680;DHT22;9989;48.962;9.182;2023-07-22T09:30:27;25.10;94.30
19680;DHT22;9989;48.962;9.182;2023-07-22T09:32:55;25.10;94.90
19680;DHT22;9989;48.962;9.182;2023-07-22T09:35:21;25.10;95.10
19680;DHT22;9989;48.962;9.182;2023-07-22T09:37:47;25.20;94.70
19680;DHT22;9989;48.962;9.182;2023-07-22T09:40:18;25.20;92.60
19680;DHT22;9989;48.962;9.182;2023-07-22T09:42:55;25.20;92.90
19680;DHT22;9989;48.962;9.182;2023-07-22T09:45:28;25.10;93.10
19680;DHT22;9989;48.962;9.182;2023-07-22T09:47:55;25.20;93.20
19680;DHT22;9989;48.962;9.182;2023-07-22T09:50:22;25.20;92.30
19680;DHT22;9989;48.962;9.182;2023-07-22T09:52:53;25.10;92.00
19680;DHT22;9989;48.962;9.182;2023-07-22T09:55:27;25.20;92.20
19680;DHT22;9989;48.962;9.182;2023-07-22T09:58:05;25.40;92.00
19680;DHT22;9989;48.962;9.182;2023-07-22T10:00:33;25.70;91.40
19680;DHT22;9989;48.962;9.182;2023-07-22T10:03:02;25.80;91.40
19680;DHT22;9989;48.962;9.182;2023-07-22T10:05:30;26.00;90.70
19680;DHT22;9989;48.962;9.182;2023-07-22T10:07:59;26.20;90.40
19680;DHT22;9989;48.962;9.182;2023-07-22T10:10:32;26.40;90.10
19680;DHT22;9989;48.962;9.182;2023-07-22T10:12:58;26.60;81.10
19680;DHT22;9989;48.962;9.182;2023-07-22T10:15:34;26.70;80.40
19680;DHT22;9989;48.962;9.182;2023-07-22T10:18:04;26.90;82.40
19680;DHT22;9989;48.962;9.182;2023-07-22T10:20:30;27.10;82.30
19680;DHT22;9989;48.962;9.182;2023-07-22T10:23:01;27.20;82.10
19680;DHT22;9989;48.962;9.182;2023-07-22T10:25:26;27.30;81.80
19680;DHT22;9989;48.962;9.182;2023-07-22T10:27:53;27.30;81.00
19680;DHT22;9989;48.962;9.182;2023-07-22T10:30:19;27.30;80.70
19680;DHT22;9989;48.962;9.182;2023-07-22T10:32:52;27.20;80.20
19680;DHT22;9989;48.962;9.182;2023-07-22T10:38:09;27.00;77.00
19680;DHT22;9989;48.962;9.182;2023-07-22T10:40:53;26.80;75.00
19680;DHT22;9989;48.962;9.182;2023-07-22T10:43:31;26.50;73.10
19680;DHT22;9989;48.962;9.182;2023-07-22T10:45:58;26.40;75.20
19680;DHT22;9989;48.962;9.182;2023-07-22T10:48:34;26.30;74.90
19680;DHT22;9989;48.962;9.182;2023-07-22T10:51:11;26.30;73.80
19680;DHT22;9989;48.962;9.182;2023-07-22T10:53:43;26.20;73.10
19680;DHT22;9989;48.962;9.182;2023-07-22T11:04:20;25.90;71.20
19680;DHT22;9989;48.962;9.182;2023-07-22T11:14:35;26.00;69.10
19680;DHT22;9989;48.962;9.182;2023-07-22T11:17:04;25.90;68.60
19680;DHT22;9989;48.962;9.182;2023-07-22T11:19:30;25.90;70.60
19680;DHT22;9989;48.962;9.182;2023-07-22T11:21:57;25.90;71.40
19680;DHT22;9989;48.962;9.182;2023-07-22T11:24:24;25.90;71.20
19680;DHT22;9989;48.962;9.182;2023-07-22T11:26:50;26.00;71.80
19680;DHT22;9989;48.962;9.182;2023-07-22T11:29:16;26.20;72.30
19680;DHT22;9989;48.962;9.182;2023-07-22T11:31:44;26.40;72.60
19680;DHT22;9989;48.962;9.182;2023-07-22T11:34:12;26.60;71.50
19680;DHT22;9989;48.962;9.182;2023-07-22T11:36:38;26.70;70.70
19680;DHT22;9989;48.962;9.182;2023-07-22T11:39:27;26.80;70.80
19680;DHT22;9989;48.962;9.182;2023-07-22T11:41:53;27.00;69.50
19680;DHT22;9989;48.962;9.182;2023-07-22T11:44:21;27.10;69.00
19680;DHT22;9989;48.962;9.182;2023-07-22T11:47:06;27.30;70.50
19680;DHT22;9989;48.962;9.182;2023-07-22T11:49:36;27.50;70.00
19680;DHT22;9989;48.962;9.182;2023-07-22T11:52:05;27.70;68.30
19680;DHT22;9989;48.962;9.182;2023-07-22T11:54:34;27.80;67.60
19680;DHT22;9989;48.962;9.182;2023-07-22T11:57:13;27.90;65.90
19680;DHT22;9989;48.962;9.182;2023-07-22T11:59:46;27.80;65.00
19680;DHT22;9989;48.962;9.182;2023-07-22T12:02:17;27.70;65.60
19680;DHT22;9989;48.962;9.182;2023-07-22T12:04:43;27.70;67.10
19680;DHT22;9989;48.962;9.182;2023-07-22T12:07:41;27.80;67.50
19680;DHT22;9989;48.962;9.182;2023-07-22T12:10:07;27.90;67.10
19680;DHT22;9989;48.962;9.182;2023-07-22T12:12:42;28.00;67.30
19680;DHT22;9989;48.962;9.182;2023-07-22T12:15:13;27.90;66.40
19680;DHT22;9989;48.962;9.182;2023-07-22T12:18:00;28.00;66.50
19680;DHT22;9989;48.962;9.182;2023-07-22T12:20:30;28.10;66.10
19680;DHT22;9989;48.962;9.182;2023-07-22T12:22:57;28.30;64.80
19680;DHT22;9989;48.962;9.182;2023-07-22T12:25:23;28.40;64.60
19680;DHT22;9989;48.962;9.182;2023-07-22T12:27:49;28.50;63.60
19680;DHT22;9989;48.962;9.182;2023-07-22T12:30:18;28.50;63.20
19680;DHT22;9989;48.962;9.182;2023-07-22T12:32:44;28.60;62.60
19680;DHT22;9989;48.962;9.182;2023-07-22T12:35:10;28.50;62.00
19680;DHT22;9989;48.962;9.182;2023-07-22T12:37:36;28.40;63.90
19680;DHT22;9989;48.962;9.182;2023-07-22T12:40:02;28.50;61.40
19680;DHT22;9989;48.962;9.182;2023-07-22T12:42:30;28.50;62.10
19680;DHT22;9989;48.962;9.182;2023-07-22T12:44:56;28.40;61.50
19680;DHT22;9989;48.962;9.182;2023-07-22T12:47:21;28.40;63.50
19680;DHT22;9989;48.962;9.182;2023-07-22T12:49:47;28.50;63.60
19680;DHT22;9989;48.962;9.182;2023-07-22T12:52:12;28.60;63.10
19680;DHT22;9989;48.962;9.182;2023-07-22T12:54:38;28.70;62.20
19680;DHT22;9989;48.962;9.182;2023-07-22T12:57:05;28.80;62.50
19680;DHT22;9989;48.962;9.182;2023-07-22T12:59:30;28.90;61.80
19680;DHT22;9989;48.962;9.182;2023-07-22T13:01:57;29.00;63.00
19680;DHT22;9989;48.962;9.182;2023-07-22T13:04:24;29.10;59.90
19680;DHT22;9989;48.962;9.182;2023-07-22T13:06:50;29.10;60.90
19680;DHT22;9989;48.962;9.182;2023-07-22T13:09:17;29.30;61.20
19680;DHT22;9989;48.962;9.182;2023-07-22T13:11:43;29.40;61.40
19680;DHT22;9989;48.962;9.182;2023-07-22T13:14:09;29.60;60.50
19680;DHT22;9989;48.962;9.182;2023-07-22T13:16:34;29.80;59.80
19680;DHT22;9989;48.962;9.182;2023-07-22T13:19:00;29.80;60.00
19680;DHT22;9989;48.962;9.182;2023-07-22T13:21:28;29.90;59.60
19680;DHT22;9989;48.962;9.182;2023-07-22T13:23:54;30.00;59.20
19680;DHT22;9989;48.962;9.182;2023-07-22T13:26:20;30.10;59.00
19680;DHT22;9989;48.962;9.182;2023-07-22T13:28:45;30.10;58.80
19680;DHT22;9989;48.962;9.182;2023-07-22T13:31:11;30.10;58.50
19680;DHT22;9989;48.962;9.182;2023-07-22T13:33:37;29.90;58.80
19680;DHT22;9989;48.962;9.182;2023-07-22T13:36:02;29.90;59.00
19680;DHT22;9989;48.962;9.182;2023-07-22T13:38:28;30.00;59.20
19680;DHT22;9989;48.962;9.182;2023-07-22T13:40:54;30.00;58.00
19680;DHT22;9989;48.962;9.182;2023-07-22T13:43:19;30.00;58.20
19680;DHT22;9989;48.962;9.182;2023-07-22T13:45:45;29.90;58.90
19680;DHT22;9989;48.962;9.182;2023-07-22T13:48:10;29.90;57.50
19680;DHT22;9989;48.962;9.182;2023-07-22T13:50:37;29.90;58.00
19680;DHT22;9989;48.962;9.182;2023-07-22T13:53:02;29.90;58.20
19680;DHT22;9989;48.962;9.182;2023-07-22T13:55:28;29.90;57.40
19680;DHT22;9989;48.962;9.182;2023-07-22T13:57:54;29.90;57.40
19680;DHT22;9989;48.962;9.182;2023-07-22T14:00:19;29.90;56.00
19680;DHT22;9989;48.962;9.182;2023-07-22T14:02:45;29.80;55.60
19680;DHT22;9989;48.962;9.182;2023-07-22T14:05:11;29.80;56.70
19680;DHT22;9989;48.962;9.182;2023-07-22T14:07:36;29.80;56.90
19680;DHT22;9989;48.962;9.182;2023-07-22T14:10:03;29.90;56.20
19680;DHT22;9989;48.962;9.182;2023-07-22T14:12:29;29.90;56.60
19680;DHT22;9989;48.962;9.182;2023-07-22T14:14:55;29.90;56.30
19680;DHT22;9989;48.962;9.182;2023-07-22T14:17:21;29.90;56.10
19680;DHT22;9989;48.962;9.182;2023-07-22T14:19:46;29.90;55.80
19680;DHT22;9989;48.962;9.182;2023-07-22T14:22:12;29.90;55.70
19680;DHT22;9989;48.962;9.182;2023-07-22T14:24:38;29.70;55.60
19680;DHT22;9989;48.962;9.182;2023-07-22T14:27:03;29.60;55.40
19680;DHT22;9989;48.962;9.182;2023-07-22T14:29:29;29.50;56.40
19680;DHT22;9989;48.962;9.182;2023-07-22T14:31:58;29.50;56.80
19680;DHT22;9989;48.962;9.182;2023-07-22T14:34:24;29.50;56.60
19680;DHT22;9989;48.962;9.182;2023-07-22T14:36:49;29.60;56.50
19680;DHT22;9989;48.962;9.182;2023-07-22T14:39:15;29.70;56.60
19680;DHT22;9989;48.962;9.182;2023-07-22T14:41:41;29.60;56.30
19680;DHT22;9989;48.962;9.182;2023-07-22T14:44:10;29.60;55.50
19680;DHT22;9989;48.962;9.182;2023-07-22T14:46:36;29.40;55.90
19680;DHT22;9989;48.962;9.182;2023-07-22T14:49:02;29.50;56.20
19680;DHT22;9989;48.962;9.182;2023-07-22T14:51:28;29.40;56.20
19680;DHT22;9989;48.962;9.182;2023-07-22T14:53:53;29.40;56.40
19680;DHT22;9989;48.962;9.182;2023-07-22T14:56:19;29.40;56.30
19680;DHT22;9989;48.962;9.182;2023-07-22T14:58:45;29.40;56.30
19680;DHT22;9989;48.962;9.182;2023-07-22T15:01:11;29.40;56.00
19680;DHT22;9989;48.962;9.182;2023-07-22T15:03:37;29.50;55.60
19680;DHT22;9989;48.962;9.182;2023-07-22T15:06:04;29.40;55.90
19680;DHT22;9989;48.962;9.182;2023-07-22T15:08:30;29.40;56.10
19680;DHT22;9989;48.962;9.182;2023-07-22T15:10:56;29.30;55.60
19680;DHT22;9989;48.962;9.182;2023-07-22T15:23:48;28.40;56.90
19680;DHT22;9989;48.962;9.182;2023-07-22T15:26:13;28.30;57.70
19680;DHT22;9989;48.962;9.182;2023-07-22T15:28:39;28.40;57.50
19680;DHT22;9989;48.962;9.182;2023-07-22T15:31:06;28.40;57.70
19680;DHT22;9989;48.962;9.182;2023-07-22T15:33:33;28.40;56.70
19680;DHT22;9989;48.962;9.182;2023-07-22T15:35:59;28.50;56.20
19680;DHT22;9989;48.962;9.182;2023-07-22T15:38:24;28.40;57.00
19680;DHT22;9989;48.962;9.182;2023-07-22T15:40:52;28.40;57.20
19680;DHT22;9989;48.962;9.182;2023-07-22T15:43:18;28.40;56.60
19680;DHT22;9989;48.962;9.182;2023-07-22T15:45:43;28.40;57.20
19680;DHT22;9989;48.962;9.182;2023-07-22T15:48:09;28.30;57.10
19680;DHT22;9989;48.962;9.182;2023-07-22T15:50:35;28.30;57.70
19680;DHT22;9989;48.962;9.182;2023-07-22T15:53:00;28.30;57.70
19680;DHT22;9989;48.962;9.182;2023-07-22T15:55:26;28.30;56.60
19680;DHT22;9989;48.962;9.182;2023-07-22T15:57:52;28.20;56.70
19680;DHT22;9989;48.962;9.182;2023-07-22T16:00:17;28.20;56.60
19680;DHT22;9989;48.962;9.182;2023-07-22T16:02:43;28.10;56.30
19680;DHT22;9989;48.962;9.182;2023-07-22T16:05:09;28.00;57.10
19680;DHT22;9989;48.962;9.182;2023-07-22T16:07:36;27.90;57.30
19680;DHT22;9989;48.962;9.182;2023-07-22T16:10:03;27.80;57.40
19680;DHT22;9989;48.962;9.182;2023-07-22T16:12:29;27.80;57.90